Portada
METAR-TAF:

METAR-TAF

Aeropuertos :

Aeropuerto Internacional de La Chinita

Maracaibo, Venezuela

latitud: 10-34N, longitud: 071-44W, altitud: 66 m

METAR: falta

Hora: 23:31 (03:31 UTC)

Pronóstico

El informe se hizo hace 5 horas y 31 minutos, a las 22:00 UTC
Pronóstico válido del 24 a las 00 UTC al 25 a las 00 UTC
Viento 3 kt del noroeste
Visibilidad 10 km o más
Nubes dispersas a una altura de 1300 ft
Evolucionando progresivamente
del 24 a las 00 UTC al 24 a las 06 UTC
Viento kt del norte
Escasas nubes a una altura de 1300 ft

TAF: SVMC 232200Z 2400/2500 31003KT 9999 SCT013 TX34/18Z TN25/08Z BECMG 2400/2406 00000KT FEW013

Observaciones y pronósticos meteorológicos de más de 4000 aeropuertos (mensajes METAR y TAF).

Los puntos amarillos y rojos representan las estaciones disponibles.

Ponga el ratón en el punto deseado para ver el nombre de la estación.

Haga clic para ver las observaciones y los pronósticos meteorológicos.

Para cambiar el mapa : haga clic en los botones verdes con una cruz de color negro para hacer un zoom, en el botón verde con un guión para alejar o en las flechas verdes para mapas adyacentes.


METAR-TAF: